Timeline UpdatesTrip UpdatesNews PostsPvt Posts♥♥Travel TipsAdmin PostsConv PostsFollowed PostsChat RequestsBlog PostsPNR Posts

Disclaimer
Search
 
 
Thu Dec 18, 2014 17:01:35 ISTHomeTrainsΣChainsAtlasPNRForumGalleryNewsFAQTripsMembersLoginFeedback
PNR Super Search

Ticket PNR Status Inquiry - PNR: 213-xxxxxxx (E-Ticket)

OLD STATUS

Status Last Updated on: Apr 19 2012 (6:17PM) IST

Date of Journey: Thu Apr 19, 2012   Class: Sleeper - SL
Passenger 1: Waitlist# 14 (Booking Status: W/L 52,RLGN)
Chart PREPARED

Sadbhavana Express/14008

Travel Time: 6h 37m    4 halts    Distance: 304 km    Avg Speed: 45 km/hr
Type: Mail/Express
Zone: NR/Northern
Departs @ 20:48 (Avg 2h 2m late)
Platform# 1
  T T  
Chandausi Junction/CH 
Arrives @ 03:25 +1 night (Avg 1h 6m late)
Platform# 3
   W F 
Lucknow Charbagh NR/LKO 

4 halts. 48 intermediate Stations between Chandausi Junction and Lucknow Charbagh NR

Show ALL intermediate Stations  Show Old Time-Table

#TrkCodeStation NameX/OArrivesAvgDepartsAvgHaltPFDay#KmSpeedElevZoneAddress
1/==/DLIOld Delhi Junction (16)  -16:15+1:2391-204.526219mNRNear Chandni Chowk Metro Station, Delhi NCT
2/==/GZBGhaziabad Junction (6)  17:03 17:01+1:2717:05 17:03+1:292m51-184.559217mNRGhaziabad, Uttar Pradesh
3%==%PKWPilkhua (3)  17:29+1:5617:31+2:002m--1-158.951218mNRPilkhuwa, Uttar Pradesh
4%==%HPUHapur Junction (4)  17:46 17:44+2:0117:48 17:46+2:022m31-147.773214mNRHapur Jn., Uttar Pradesh
5%==%AMROAmroha (3)  18:46+2:0518:48+2:052m11-74.339217mNRAmroha, Uttar Pradesh
6%==%MBMoradabad Junction (7)  19:35+2:0019:45+2:0110m31-43.748201mNRMoradabad, Uttar Pradesh
7|--|CHChandausi Junction (3)»X  20:40+2:0620:48+2:028m110.053193mNRChandausi, Uttar Pradesh
8|--|AOAonla (2)  21:36+2:0721:38+2:072m--142.252176mNRDist. Bareilly, Uttar Pradesh
9/==/SPNShahjahanpur Junction (5)X  23:30+2:0623:35+2:055m--1139.638156mNRShahjahanpur, Uttar Pradesh
10/==/HRIHardoi (5)X  01:13 01:15+1:5001:15 01:20+1:512 5m32202.658146mNRHardoi, Uttar Pradesh
11/==/AMGAlamnagar (3)X  02:58+1:4203:00+1:132m32297.417126mNRLucknow, Uttar Pradesh
12/==/LKOLucknow Charbagh NR (9)•XO  03:25+1:0603:35+1:1410m32304.557124mNRLucknow 226004, Uttar Pradesh
13%==%NHHNihalgarh (3)  05:08+1:3005:10+1:332m12393.476108mNRJagdishpur, Uttar Pradesh
14%==%MFKAMusafir Khana (3)  05:25+1:3905:27+1:392m12412.344105mNRMusfirKhana, Uttar Pradesh
15%==/SLNSultanpur Junction (3)  06:10+1:3506:15+1:355m32443.96999mNRSultanpur., Uttar Pradesh
16%==%LBALambhua (1)X  06:33 06:34+1:5106:35+1:532 1m12465.87097mNRLambhua, Uttar Pradesh
17/==/JOPJaunpur City (3)  07:29 07:30+1:5607:31+1:572 1m12529.63587mNRJaunpur, Uttar Pradesh
18/==/BSBVaranasi Junction (9)X  09:10+1:1709:25+1:1815m--2587.11882mNRVaranasi 221002, Uttar Pradesh
19|--|BCYVaranasi City (3)  09:34 09:36+1:2209:36 09:40+1:362 4m12590.45577mNERVaranasi, Uttar Pradesh
20|--|ARJAunrihar Junction (4)  10:15+1:1910:17+1:232m22622.35580mNERGhazipur, Uttar Pradesh
21|--|GCTGhazipur City (3)  11:00+1:4911:05+1:525m12661.86374mNERGhazipur, Uttar Pradesh
22|--|YFPYusufpur  11:24+1:3811:26+1:382m--2681.84477mNERMDR 94E, Uttar Pradesh
23|--|BUIBallia (3)  12:28+1:2812:33+1:285m--2726.86462mNERBallia, Uttar Pradesh
24|--|SIPSuraimanpur  13:05 13:07+1:3213:07 13:09+1:322m--2763.32960mNERBallia, Uttar Pradesh
25|--|CPRChhapra Junction (6)X  14:10+1:2914:30+1:3320m--2792.45858mNERDistt: Saran, Bihar
26/==/DGADighwara (2)  15:00 15:02+2:2015:02 15:04+2:202m--2823.33860mECR06158-281240, Bihar
27/==/SEESonpur Junction (4)  15:41+2:1115:46+2:145m--2846.53356mECRSaran, Bihar
28/=-/HJPHajipur Junction (3)  15:59 15:56+2:1816:01+2:262 5m32852.03155mECR06224-272230, Bihar
29%==%MFPMuzaffarpur Junction (6)17:45+2:0418:15+2:0730m12905.85357mECRMuzaffarpur, Bihar
30|--|RUSDRunnisaidpur (3) new halt!!  19:02+3:1819:04+3:182m--2947.44459mECRNear Saidpur, Bihar
31|==|SMISitamarhi Junction (5)  19:35+3:2419:40+3:245m--2970.24366mECRSitamarhi, Bihar
32|--|BGUBairgania  20:21+3:3720:23+3:382m--2999.62977mECRSitamarhi, Bihar
33|--|RXLRaxaul Junction (5)  22:15+3:25---21053.0-88mECREast Champaran, Bihar
Scroll to Top
Scroll to Bottom


Go to Mobile site